Comodoro Arturo Merino Benítez International Airport
SCEL : now visible

Airfield :











YOU CAN JOIN US ON...

 
LOGIN :

Register | Disclaimer

   EN    FR    IT 

 









Legend :    VFR   Marginal VFR   IFR   Intensive IFR   Very Intensive IFR
Visi :
Ceiling :
>= 8 km
>= 3000ft
5 to 8 km
1000 to 3000 ft
1500m to 5 km
500 to 1000 ft
800 to 1500m
200 to 500 ft
< 800m
< 200 ft
Symbols :   Thunderstorms  Fog  Heavy snow  Heavy precipitations  Wind > 20 kt







- Airport Elevation : 1555 ft
- IATA code : SCL


SCEL - Comodoro Arturo Merino Benítez International

CURRENT METAR :
  • 191500Z VRB02KT 8000 NSC 25/14 Q1015 NOSIG

EXPIRED METARs :
  • 191400Z VRB02KT 7000 NSC 22/14 Q1015 NOSIG
  • 191300Z 00000KT 6000 NSC 19/14 Q1015 NOSIG

TAF TAF SCEL
Valid from the 19 at 12:00 until the 20 at 12:00 UTC


191029Z 1912/2012 16004KT 7000 NSC TX31/1919Z TN15/2011Z
TEMPO 1912/1913 VRB02KT 4000 BR FEW002
BECMG 1915/1917 18008KT CAVOK
BECMG 1919/1921 21012KT
BECMG 2000/2002 16007KT
SCEZ FIR / South America



MET'MAP, your aeronautical weather chart ! - Copyright ORBIFLY December 2007 - Disclaimer

ORBIFLY MET'MAP TEAM :

Programming & Development : Alexandra Zaïnal
Concept & Development : Baudouin d'Aumeries
Co-Development & Prog : Marc-Olivier Méhu
Technical & hardware support : Manuel Goepfert

Contact : metmap@orbifly.com




SOURCES & CREDITS :

   NOAA       Earth
Advisory